Time;durP1;ratioP1;P1;durP2;ratioP2;P2;SDS_P1;SDS_P2;PMS_P1;PMS_P2;Temp;Humidity;BMP_temperature;BMP_pressure;BME280_temperature;BME280_humidity;BME280_pressure;Samples;Min_cycle;Max_cycle;Signal;HPM_P1;HPM_P2
2022/02/08 00:01:13;;;;;;;;;;;;;;;;;;;;;
2022/02/08 00:03:49;;;;;;;18.55;13.20;;;;;;;;;;5108341;28;20762;-93
2022/02/08 00:06:41;;;;;;;22.27;13.80;;;;;;;;;;5106452;28;20431;-92
2022/02/08 00:09:16;;;;;;;19.58;13.48;;;;;;;;;;5108813;28;20411;-93
2022/02/08 00:11:54;;;;;;;21.35;14.63;;;;;;;;;;5105090;28;20963;-93
2022/02/08 00:14:30;;;;;;;28.55;20.38;;;;;;;;;;5109421;28;20406;-93
2022/02/08 00:17:01;;;;;;;22.30;15.55;;;;;;;;;;5108710;28;20410;-93
2022/02/08 00:19:36;;;;;;;25.70;16.83;;;;;;;;;;5108939;28;20901;-93
2022/02/08 00:22:06;;;;;;;21.45;14.82;;;;;;;;;;5109466;28;20471;-93
2022/02/08 00:24:40;;;;;;;20.33;13.55;;;;;;;;;;5108848;28;20406;-94
2022/02/08 00:27:16;;;;;;;19.58;13.65;;;;;;;;;;5105141;28;20403;-93
2022/02/08 00:29:46;;;;;;;20.25;12.43;;;;;;;;;;5108157;28;20418;-92
2022/02/08 00:32:16;;;;;;;21.13;13.10;;;;;;;;;;5108803;28;20395;-94
2022/02/08 00:34:45;;;;;;;16.58;12.13;;;;;;;;;;5108560;28;20693;-93
2022/02/08 00:37:12;;;;;;;18.25;11.57;;;;;;;;;;5108435;28;20475;-93
2022/02/08 00:39:39;;;;;;;18.10;11.85;;;;;;;;;;5107905;28;20403;-92
2022/02/08 00:42:33;;;;;;;19.20;12.40;;;;;;;;;;5109362;28;20402;-92
2022/02/08 00:45:30;;;;;;;17.52;13.15;;;;;;;;;;5118186;28;20402;-91
2022/02/08 00:48:09;;;;;;;18.37;12.57;;;;;;;;;;5122845;28;20894;-93
2022/02/08 00:50:50;;;;;;;34.28;20.90;;;;;;;;;;5107889;28;20410;-93
2022/02/08 00:53:28;;;;;;;21.88;14.73;;;;;;;;;;5108245;28;20791;-93
2022/02/08 00:56:15;;;;;;;20.38;13.30;;;;;;;;;;5107922;28;20406;-92
2022/02/08 00:58:58;;;;;;;20.05;14.02;;;;;;;;;;5107802;28;20870;-92
2022/02/08 01:01:38;;;;;;;18.73;13.02;;;;;;;;;;5106529;28;20897;-94
2022/02/08 01:04:14;;;;;;;18.65;13.50;;;;;;;;;;5107857;28;20868;-94
2022/02/08 01:06:43;;;;;;;18.73;13.35;;;;;;;;;;5104267;28;20405;-94
2022/02/08 01:09:32;;;;;;;16.35;12.48;;;;;;;;;;5108377;28;20766;-94
2022/02/08 01:15:15;;;;;;;20.52;14.23;;;;;;;;;;5104653;28;20879;-94
2022/02/08 01:17:46;;;;;;;17.83;12.60;;;;;;;;;;5102673;28;20417;-93
2022/02/08 01:20:21;;;;;;;20.00;13.23;;;;;;;;;;5107846;28;20489;-94
2022/02/08 01:22:51;;;;;;;18.42;13.20;;;;;;;;;;5102214;28;21128;-93
2022/02/08 01:25:28;;;;;;;17.30;12.10;;;;;;;;;;5098012;28;20764;-94
2022/02/08 01:28:03;;;;;;;18.50;12.57;;;;;;;;;;5094651;27;20427;-94
2022/02/08 01:30:45;;;;;;;20.52;13.10;;;;;;;;;;5099974;28;20417;-94
2022/02/08 01:33:36;;;;;;;18.10;12.77;;;;;;;;;;5098767;28;20707;-94
2022/02/08 01:36:38;;;;;;;19.07;11.93;;;;;;;;;;5100223;28;20410;-93
2022/02/08 01:39:13;;;;;;;22.97;14.23;;;;;;;;;;5099243;28;20391;-94
2022/02/08 01:44:43;;;;;;;17.65;11.77;;;;;;;;;;5055321;28;20463;-93
2022/02/08 01:47:23;;;;;;;15.45;11.10;;;;;;;;;;5095527;28;20663;-94
2022/02/08 01:50:10;;;;;;;20.07;13.37;;;;;;;;;;5096529;28;20434;-94
2022/02/08 01:52:56;;;;;;;21.33;15.93;;;;;;;;;;5098110;28;20964;-94
2022/02/08 01:55:25;;;;;;;18.42;12.13;;;;;;;;;;5094997;28;20396;-94
2022/02/08 01:57:59;;;;;;;19.00;11.73;;;;;;;;;;5095102;28;20780;-94
2022/02/08 02:00:35;;;;;;;15.80;11.30;;;;;;;;;;5098258;28;20404;-92
2022/02/08 02:03:04;;;;;;;16.48;11.20;;;;;;;;;;5103378;28;20411;-93
2022/02/08 02:05:50;;;;;;;16.90;10.98;;;;;;;;;;5106240;28;20407;-93
2022/02/08 02:08:18;;;;;;;17.52;12.07;;;;;;;;;;5103369;28;20779;-94
2022/02/08 02:10:49;;;;;;;15.65;11.00;;;;;;;;;;5111350;28;20394;-92
2022/02/08 02:13:37;;;;;;;15.80;10.50;;;;;;;;;;5129459;28;20456;-93
2022/02/08 02:16:11;;;;;;;17.20;10.97;;;;;;;;;;5128032;28;20466;-92
2022/02/08 02:19:09;;;;;;;14.73;9.95;;;;;;;;;;5102488;28;22490;-92
2022/02/08 02:21:42;;;;;;;13.85;9.60;;;;;;;;;;5103018;28;20407;-92
2022/02/08 02:24:27;;;;;;;14.03;9.27;;;;;;;;;;5103525;28;20402;-93
2022/02/08 02:27:11;;;;;;;12.43;8.90;;;;;;;;;;5107008;28;20958;-91
2022/02/08 02:29:53;;;;;;;13.93;9.05;;;;;;;;;;5102848;28;20398;-91
2022/02/08 02:32:20;;;;;;;13.27;9.27;;;;;;;;;;5102227;28;20413;-94
2022/02/08 02:35:23;;;;;;;14.05;9.40;;;;;;;;;;5105532;28;20403;-92
2022/02/08 02:37:57;;;;;;;13.70;8.27;;;;;;;;;;5105560;28;20406;-92
2022/02/08 02:40:30;;;;;;;11.77;8.15;;;;;;;;;;5106865;28;20403;-92
2022/02/08 02:43:08;;;;;;;13.55;7.63;;;;;;;;;;5106969;28;20497;-92
2022/02/08 02:48:37;;;;;;;10.68;7.70;;;;;;;;;;5104788;28;20413;-92
2022/02/08 02:51:08;;;;;;;10.40;7.75;;;;;;;;;;5106538;28;20921;-94
2022/02/08 02:53:37;;;;;;;12.40;7.63;;;;;;;;;;5106467;28;20406;-93
2022/02/08 02:56:23;;;;;;;11.20;8.23;;;;;;;;;;5103976;28;20414;-93
2022/02/08 02:59:04;;;;;;;12.48;8.48;;;;;;;;;;5104884;28;20391;-92
2022/02/08 03:01:36;;;;;;;13.25;8.35;;;;;;;;;;5106605;28;20413;-93
2022/02/08 03:04:23;;;;;;;13.40;8.70;;;;;;;;;;5107419;28;20560;-92
2022/02/08 03:20:56;;;;;;;10.23;7.55;;;;;;;;;;5103200;28;20451;-92
2022/02/08 03:26:12;;;;;;;11.20;8.05;;;;;;;;;;5105633;28;20443;-92
2022/02/08 03:28:47;;;;;;;11.05;7.60;;;;;;;;;;5102714;28;20415;-93
2022/02/08 03:31:32;;;;;;;10.68;7.45;;;;;;;;;;5107466;28;20418;-92
2022/02/08 03:34:02;;;;;;;11.43;7.53;;;;;;;;;;5108234;28;20402;-92
2022/02/08 03:36:29;;;;;;;10.32;7.38;;;;;;;;;;5111672;28;20410;-92
2022/02/08 03:39:10;;;;;;;9.82;7.13;;;;;;;;;;5112961;28;20501;-92
2022/02/08 03:41:53;;;;;;;10.75;7.00;;;;;;;;;;5129659;28;20409;-93
2022/02/08 03:44:33;;;;;;;10.15;7.07;;;;;;;;;;5113102;28;20401;-93
2022/02/08 03:47:09;;;;;;;9.57;7.05;;;;;;;;;;5110432;28;20411;-92
2022/02/08 03:49:38;;;;;;;10.30;7.00;;;;;;;;;;5110166;28;20562;-93
2022/02/08 03:52:23;;;;;;;11.43;7.10;;;;;;;;;;5111895;28;20956;-92
2022/02/08 03:55:13;;;;;;;9.93;7.03;;;;;;;;;;5112053;28;20702;-92
2022/02/08 03:57:40;;;;;;;13.10;7.22;;;;;;;;;;5111897;28;20403;-93
2022/02/08 04:00:51;;;;;;;9.43;7.00;;;;;;;;;;5091929;28;20756;-93
2022/02/08 04:03:42;;;;;;;10.30;6.85;;;;;;;;;;5094033;28;20411;-92
2022/02/08 04:06:13;;;;;;;10.80;7.53;;;;;;;;;;5111846;28;20402;-93
2022/02/08 04:08:44;;;;;;;9.07;6.57;;;;;;;;;;5111846;28;20841;-93
2022/02/08 04:11:19;;;;;;;10.60;6.60;;;;;;;;;;5100702;28;20418;-91
2022/02/08 04:14:01;;;;;;;10.65;7.10;;;;;;;;;;5111742;28;20430;-93
2022/02/08 04:16:34;;;;;;;9.60;6.72;;;;;;;;;;5111575;28;20822;-93
2022/02/08 04:33:08;;;;;;;8.07;6.05;;;;;;;;;;5095601;28;20464;-92
2022/02/08 04:35:59;;;;;;;9.70;6.13;;;;;;;;;;5111115;28;20482;-92
2022/02/08 04:38:40;;;;;;;8.13;5.30;;;;;;;;;;5111224;28;20468;-93
2022/02/08 04:41:11;;;;;;;7.80;5.65;;;;;;;;;;5111552;28;20403;-92
2022/02/08 04:43:50;;;;;;;8.90;5.55;;;;;;;;;;5110913;28;20410;-92
2022/02/08 04:46:42;;;;;;;7.63;5.53;;;;;;;;;;5095882;28;20480;-93
2022/02/08 04:49:21;;;;;;;7.88;5.25;;;;;;;;;;5111253;28;20402;-91
2022/02/08 04:51:57;;;;;;;8.30;5.60;;;;;;;;;;5090539;28;20565;-92
2022/02/08 04:54:35;;;;;;;7.22;5.50;;;;;;;;;;5090899;28;20800;-92
2022/02/08 04:57:18;;;;;;;8.07;5.60;;;;;;;;;;5106059;28;20403;-93
2022/02/08 05:00:12;;;;;;;6.72;5.28;;;;;;;;;;5111031;28;20409;-92
2022/02/08 05:42:46;;;;;;;8.73;4.85;;;;;;;;;;5107880;28;20409;-92
2022/02/08 05:45:27;;;;;;;8.93;5.30;;;;;;;;;;5104644;28;20407;-92
2022/02/08 05:48:02;;;;;;;9.52;5.60;;;;;;;;;;5109893;28;20440;-93
2022/02/08 05:50:44;;;;;;;8.85;6.13;;;;;;;;;;5101520;28;20460;-93
2022/02/08 05:53:28;;;;;;;8.02;5.35;;;;;;;;;;5095280;28;20416;-92
2022/02/08 05:56:21;;;;;;;10.52;5.75;;;;;;;;;;5100827;28;20412;-92
2022/02/08 05:58:52;;;;;;;7.68;5.30;;;;;;;;;;5098875;28;20428;-91
2022/02/08 06:01:19;;;;;;;10.55;5.72;;;;;;;;;;5124926;28;20393;-92
2022/02/08 06:03:49;;;;;;;9.97;5.37;;;;;;;;;;5104420;28;20882;-91
2022/02/08 06:06:19;;;;;;;10.93;5.17;;;;;;;;;;5102264;28;20440;-93
2022/02/08 06:09:05;;;;;;;11.02;5.47;;;;;;;;;;5096417;28;20408;-93
2022/02/08 06:11:35;;;;;;;7.63;5.40;;;;;;;;;;5099338;28;20414;-93
2022/02/08 06:14:24;;;;;;;15.13;5.68;;;;;;;;;;5100392;28;20498;-93
2022/02/08 06:16:54;;;;;;;10.27;5.72;;;;;;;;;;5093392;28;20409;-92
2022/02/08 06:19:30;;;;;;;9.48;5.68;;;;;;;;;;5098293;28;20399;-94
2022/02/08 06:21:58;;;;;;;8.60;5.72;;;;;;;;;;5102683;28;20410;-91
2022/02/08 06:24:28;;;;;;;9.35;5.55;;;;;;;;;;5095858;28;20467;-90
2022/02/08 06:26:55;;;;;;;9.35;5.53;;;;;;;;;;5099764;28;20406;-91
2022/02/08 06:29:23;;;;;;;8.98;5.80;;;;;;;;;;5094946;28;20428;-91
2022/02/08 06:31:50;;;;;;;10.50;5.78;;;;;;;;;;5095963;28;20419;-92
2022/02/08 06:34:21;;;;;;;11.23;7.03;;;;;;;;;;5119796;28;20480;-90
2022/02/08 06:36:54;;;;;;;12.65;6.30;;;;;;;;;;5111945;28;20464;-91
2022/02/08 06:39:21;;;;;;;8.93;5.93;;;;;;;;;;5100005;28;20411;-86
2022/02/08 06:41:48;;;;;;;8.30;5.63;;;;;;;;;;5102478;28;20406;-88
2022/02/08 06:44:15;;;;;;;9.85;6.38;;;;;;;;;;5105148;28;20894;-87
2022/02/08 06:46:43;;;;;;;11.27;6.10;;;;;;;;;;5105718;28;20812;-87
2022/02/08 06:49:10;;;;;;;10.55;6.40;;;;;;;;;;5106824;28;20408;-87
2022/02/08 06:51:37;;;;;;;20.52;9.65;;;;;;;;;;5104705;28;20824;-89
2022/02/08 06:54:04;;;;;;;9.90;6.45;;;;;;;;;;5090224;28;20839;-88
2022/02/08 06:56:32;;;;;;;9.68;6.00;;;;;;;;;;5101572;28;20391;-87
2022/02/08 06:59:05;;;;;;;10.13;6.13;;;;;;;;;;5120060;28;20497;-88
2022/02/08 07:01:33;;;;;;;9.02;6.07;;;;;;;;;;5111117;28;20410;-88
2022/02/08 07:04:04;;;;;;;8.90;6.43;;;;;;;;;;5110614;28;20548;-89
2022/02/08 07:06:31;;;;;;;13.90;7.07;;;;;;;;;;5105201;28;20898;-89
2022/02/08 07:08:59;;;;;;;12.65;7.18;;;;;;;;;;5104407;28;20403;-88
2022/02/08 07:11:26;;;;;;;17.00;7.68;;;;;;;;;;5109833;28;21039;-87
2022/02/08 07:13:57;;;;;;;12.88;6.95;;;;;;;;;;5109743;28;20877;-89
2022/02/08 07:16:27;;;;;;;13.60;7.47;;;;;;;;;;5107945;28;20454;-87
2022/02/08 07:18:54;;;;;;;13.30;7.25;;;;;;;;;;5091694;28;20437;-89
2022/02/08 07:21:22;;;;;;;15.20;7.70;;;;;;;;;;5110162;28;20867;-89
2022/02/08 07:23:49;;;;;;;12.20;7.15;;;;;;;;;;5109745;28;20814;-89
2022/02/08 07:26:16;;;;;;;14.30;7.17;;;;;;;;;;5110239;28;20391;-88
2022/02/08 07:28:44;;;;;;;12.05;6.60;;;;;;;;;;5109629;28;20402;-88
2022/02/08 07:31:18;;;;;;;10.93;6.32;;;;;;;;;;5110107;28;20418;-88
2022/02/08 07:33:52;;;;;;;10.25;6.47;;;;;;;;;;5103233;28;20411;-89
2022/02/08 07:36:30;;;;;;;12.05;6.32;;;;;;;;;;5091830;28;20415;-88
2022/02/08 07:39:00;;;;;;;13.05;7.20;;;;;;;;;;5108821;28;20399;-88
2022/02/08 07:41:38;;;;;;;12.20;6.80;;;;;;;;;;5110240;28;20387;-88
2022/02/08 07:44:07;;;;;;;13.80;6.72;;;;;;;;;;5109760;28;20489;-88
2022/02/08 07:46:34;;;;;;;10.85;6.75;;;;;;;;;;5110083;28;20394;-88
2022/02/08 07:49:03;;;;;;;11.55;6.78;;;;;;;;;;5109415;28;20399;-88
2022/02/08 07:51:31;;;;;;;11.82;7.00;;;;;;;;;;5109337;28;20510;-87
2022/02/08 07:54:00;;;;;;;13.43;8.10;;;;;;;;;;5109760;28;20406;-88
2022/02/08 07:56:27;;;;;;;16.40;8.90;;;;;;;;;;5108619;28;20749;-89
2022/02/08 07:58:54;;;;;;;14.80;8.60;;;;;;;;;;5108795;28;20467;-88
2022/02/08 08:01:21;;;;;;;13.63;8.80;;;;;;;;;;5110050;28;20519;-89
2022/02/08 08:03:48;;;;;;;15.77;9.40;;;;;;;;;;5109571;28;21004;-90
2022/02/08 08:06:17;;;;;;;17.92;9.90;;;;;;;;;;5119594;28;20402;-88
2022/02/08 08:08:44;;;;;;;16.80;9.80;;;;;;;;;;5132833;28;20403;-89
2022/02/08 08:11:16;;;;;;;16.80;10.05;;;;;;;;;;5128014;28;20432;-88
2022/02/08 08:13:49;;;;;;;21.23;10.63;;;;;;;;;;5122005;28;20426;-87
2022/02/08 08:16:22;;;;;;;15.23;8.38;;;;;;;;;;5121803;28;20428;-88
2022/02/08 08:19:01;;;;;;;14.55;7.95;;;;;;;;;;5127502;28;20418;-87
2022/02/08 08:21:30;;;;;;;13.45;7.93;;;;;;;;;;5127648;28;20407;-87
2022/02/08 08:23:57;;;;;;;14.50;7.35;;;;;;;;;;5126696;28;20494;-88
2022/02/08 08:26:26;;;;;;;12.73;7.85;;;;;;;;;;5124792;28;20402;-88
2022/02/08 08:28:53;;;;;;;13.30;7.22;;;;;;;;;;5113841;28;20406;-88
2022/02/08 08:31:20;;;;;;;11.38;6.90;;;;;;;;;;5108986;28;20762;-88
2022/02/08 08:33:47;;;;;;;16.65;7.22;;;;;;;;;;5108668;28;20398;-89
2022/02/08 08:36:17;;;;;;;12.82;7.28;;;;;;;;;;5108619;28;20405;-88
2022/02/08 08:38:44;;;;;;;11.02;6.85;;;;;;;;;;5108520;28;20394;-88
2022/02/08 08:41:21;;;;;;;11.30;6.70;;;;;;;;;;5108204;28;20405;-89
2022/02/08 08:52:14;;;;;;;9.63;5.95;;;;;;;;;;5105012;28;20406;-87
2022/02/08 08:54:41;;;;;;;9.85;5.70;;;;;;;;;;5108236;28;20410;-88
2022/02/08 08:57:07;;;;;;;8.35;5.43;;;;;;;;;;5101760;28;20732;-88
2022/02/08 08:59:36;;;;;;;8.05;5.88;;;;;;;;;;5100819;28;20410;-87
2022/02/08 09:02:03;;;;;;;10.27;6.18;;;;;;;;;;5107316;28;20406;-89
2022/02/08 09:04:34;;;;;;;13.13;7.97;;;;;;;;;;5090176;28;21150;-90
2022/02/08 09:07:01;;;;;;;17.55;8.90;;;;;;;;;;5108288;28;20403;-89
2022/02/08 09:09:30;;;;;;;16.67;9.43;;;;;;;;;;5108030;28;20403;-89
2022/02/08 09:12:10;;;;;;;15.90;9.52;;;;;;;;;;5106069;28;20471;-88
2022/02/08 09:14:48;;;;;;;16.73;8.80;;;;;;;;;;5091145;28;20901;-90
2022/02/08 09:17:38;;;;;;;14.63;7.97;;;;;;;;;;5086790;28;20412;-89
2022/02/08 09:20:22;;;;;;;9.63;6.50;;;;;;;;;;5101486;28;20958;-90
2022/02/08 09:25:52;;;;;;;9.50;6.00;;;;;;;;;;5096280;28;20772;-89
2022/02/08 09:28:28;;;;;;;10.07;5.85;;;;;;;;;;5089217;28;20394;-91
2022/02/08 09:31:00;;;;;;;10.45;5.97;;;;;;;;;;5107093;28;20395;-89
2022/02/08 09:33:27;;;;;;;10.50;6.25;;;;;;;;;;5108928;28;20874;-90
2022/02/08 09:35:55;;;;;;;9.20;5.50;;;;;;;;;;5100643;28;20443;-89
2022/02/08 09:38:22;;;;;;;9.57;5.57;;;;;;;;;;5106724;28;20383;-90
2022/02/08 09:40:51;;;;;;;7.28;5.00;;;;;;;;;;5132402;28;20419;-91
2022/02/08 09:43:19;;;;;;;9.45;4.95;;;;;;;;;;5117512;28;20429;-89
2022/02/08 09:45:47;;;;;;;10.32;5.15;;;;;;;;;;5107554;28;20411;-90
2022/02/08 09:48:23;;;;;;;7.50;4.93;;;;;;;;;;5106282;28;20438;-90
2022/02/08 09:50:51;;;;;;;6.68;4.70;;;;;;;;;;5106852;28;20956;-90
2022/02/08 09:53:28;;;;;;;6.90;5.10;;;;;;;;;;5071149;28;20402;-89
2022/02/08 09:55:55;;;;;;;8.60;5.25;;;;;;;;;;5087111;28;20811;-91
2022/02/08 09:58:22;;;;;;;7.82;5.40;;;;;;;;;;5107506;28;20866;-90
2022/02/08 10:00:49;;;;;;;7.63;5.75;;;;;;;;;;5106827;28;20447;-90
2022/02/08 10:03:18;;;;;;;9.68;5.38;;;;;;;;;;5107155;28;20543;-90
2022/02/08 10:05:47;;;;;;;7.10;5.35;;;;;;;;;;5107149;28;20898;-88
2022/02/08 10:08:14;;;;;;;11.37;5.67;;;;;;;;;;5107072;28;20501;-89
2022/02/08 10:10:42;;;;;;;6.60;5.38;;;;;;;;;;5107460;28;20654;-88
2022/02/08 10:13:30;;;;;;;9.05;5.60;;;;;;;;;;5106805;28;20497;-90
2022/02/08 10:21:46;;;;;;;9.32;5.65;;;;;;;;;;5105360;28;20408;-89
2022/02/08 10:24:15;;;;;;;9.20;5.33;;;;;;;;;;5088459;28;20398;-88
2022/02/08 10:26:53;;;;;;;11.37;5.17;;;;;;;;;;5106536;28;20395;-89
2022/02/08 10:29:34;;;;;;;7.97;5.50;;;;;;;;;;5106283;28;20398;-89
2022/02/08 10:37:39;;;;;;;8.18;5.88;;;;;;;;;;5090971;28;20435;-89
2022/02/08 10:40:08;;;;;;;8.52;5.68;;;;;;;;;;5106661;28;20398;-91
2022/02/08 10:42:37;;;;;;;7.90;6.05;;;;;;;;;;5106282;28;20394;-89
2022/02/08 10:45:16;;;;;;;11.48;5.40;;;;;;;;;;5106330;28;20455;-90
2022/02/08 10:47:45;;;;;;;8.75;6.00;;;;;;;;;;5104378;28;20391;-89
2022/02/08 10:50:14;;;;;;;7.95;5.75;;;;;;;;;;5106345;28;20394;-90
2022/02/08 10:52:43;;;;;;;7.70;5.38;;;;;;;;;;5084523;28;20445;-88
2022/02/08 10:55:19;;;;;;;6.28;5.38;;;;;;;;;;5104073;28;20451;-89
2022/02/08 10:57:54;;;;;;;7.43;5.72;;;;;;;;;;5106101;28;21133;-88
2022/02/08 11:00:27;;;;;;;8.80;4.93;;;;;;;;;;5106769;28;20406;-88
2022/02/08 11:02:58;;;;;;;8.37;5.23;;;;;;;;;;5088744;28;20490;-89
2022/02/08 11:05:38;;;;;;;6.30;5.40;;;;;;;;;;5106232;28;20405;-89
2022/02/08 11:08:26;;;;;;;6.22;5.57;;;;;;;;;;5106531;28;20463;-88
2022/02/08 11:11:09;;;;;;;7.18;5.28;;;;;;;;;;5104179;28;20444;-90
2022/02/08 11:14:07;;;;;;;9.40;5.60;;;;;;;;;;5104926;28;20403;-90
2022/02/08 11:16:51;;;;;;;7.00;5.20;;;;;;;;;;5104740;28;20490;-89
2022/02/08 11:19:28;;;;;;;7.65;4.97;;;;;;;;;;5105115;28;20916;-89
2022/02/08 11:22:03;;;;;;;7.57;5.18;;;;;;;;;;5105333;28;20518;-88
2022/02/08 11:24:40;;;;;;;7.85;5.32;;;;;;;;;;5105826;28;20445;-88
2022/02/08 11:27:09;;;;;;;7.82;5.43;;;;;;;;;;5105421;28;20411;-89
2022/02/08 11:29:44;;;;;;;7.60;5.90;;;;;;;;;;5105860;28;20454;-90
2022/02/08 11:32:21;;;;;;;7.32;5.20;;;;;;;;;;5105049;28;20508;-90
2022/02/08 11:49:23;;;;;;;7.60;6.20;;;;;;;;;;5106095;28;20416;-90
2022/02/08 11:52:15;;;;;;;8.52;6.18;;;;;;;;;;5095319;28;20465;-88
2022/02/08 11:55:14;;;;;;;8.23;5.93;;;;;;;;;;5105098;28;20481;-89
2022/02/08 12:00:57;;;;;;;9.75;7.10;;;;;;;;;;5093733;28;20456;-89
2022/02/08 12:04:04;;;;;;;8.27;6.57;;;;;;;;;;5108547;28;20839;-89
2022/02/08 12:09:21;;;;;;;8.38;6.22;;;;;;;;;;5107463;28;20397;-90
2022/02/08 12:12:14;;;;;;;9.43;6.60;;;;;;;;;;5101180;28;20462;-89
2022/02/08 12:34:04;;;;;;;9.48;7.10;;;;;;;;;;5094861;28;20411;-91
2022/02/08 12:39:34;;;;;;;8.77;6.15;;;;;;;;;;5098838;28;20519;-91
2022/02/08 12:48:22;;;;;;;10.90;7.07;;;;;;;;;;5099510;28;20484;-91
2022/02/08 12:56:32;;;;;;;9.17;7.17;;;;;;;;;;5096656;28;20866;-90
2022/02/08 12:59:15;;;;;;;8.77;7.00;;;;;;;;;;5084718;28;20592;-91
2022/02/08 13:04:46;;;;;;;10.00;6.55;;;;;;;;;;5103620;28;20410;-90
2022/02/08 14:02:29;;;;;;;6.95;6.10;;;;;;;;;;5085409;28;20389;-90
2022/02/08 14:07:48;;;;;;;6.82;5.47;;;;;;;;;;5099726;28;20416;-90
2022/02/08 14:10:24;;;;;;;6.65;5.68;;;;;;;;;;5100339;28;20412;-90
2022/02/08 14:18:44;;;;;;;8.47;6.37;;;;;;;;;;5083273;28;20381;-90
2022/02/08 14:21:15;;;;;;;8.63;6.60;;;;;;;;;;5078058;28;20493;-87
2022/02/08 14:32:07;;;;;;;7.20;5.80;;;;;;;;;;5093408;28;20413;-87
2022/02/08 15:10:39;;;;;;;9.25;5.60;;;;;;;;;;5109424;28;20444;-84
2022/02/08 15:13:10;;;;;;;5.97;5.32;;;;;;;;;;5110395;28;20457;-87
2022/02/08 15:15:48;;;;;;;7.72;5.55;;;;;;;;;;5107850;27;20402;-87
2022/02/08 15:18:15;;;;;;;7.47;5.97;;;;;;;;;;5108179;28;20459;-86
2022/02/08 15:20:42;;;;;;;7.45;5.70;;;;;;;;;;5107188;28;20448;-84
2022/02/08 15:23:11;;;;;;;8.40;5.57;;;;;;;;;;5110441;28;20414;-86
2022/02/08 15:25:38;;;;;;;7.05;6.18;;;;;;;;;;5111738;28;20424;-88
2022/02/08 15:28:07;;;;;;;7.05;5.78;;;;;;;;;;5118681;28;20398;-86
2022/02/08 15:30:37;;;;;;;8.40;5.68;;;;;;;;;;5120891;27;20414;-85
2022/02/08 15:33:08;;;;;;;7.15;5.53;;;;;;;;;;5125686;28;20423;-87
2022/02/08 15:35:35;;;;;;;8.05;5.15;;;;;;;;;;5128402;28;20967;-88
2022/02/08 15:38:03;;;;;;;8.07;5.30;;;;;;;;;;5125292;28;20410;-89
2022/02/08 15:40:30;;;;;;;6.05;4.90;;;;;;;;;;5123566;28;20426;-88
2022/02/08 15:42:57;;;;;;;8.95;5.53;;;;;;;;;;5127762;28;20408;-89
2022/02/08 15:45:30;;;;;;;10.93;6.50;;;;;;;;;;5130035;28;20408;-88
2022/02/08 15:47:59;;;;;;;9.50;5.93;;;;;;;;;;5124046;28;20437;-87
2022/02/08 15:50:32;;;;;;;9.52;6.38;;;;;;;;;;5104562;28;20469;-91
2022/02/08 15:55:51;;;;;;;9.07;5.75;;;;;;;;;;5094544;28;20398;-89
2022/02/08 15:58:26;;;;;;;8.98;5.63;;;;;;;;;;5103940;28;20479;-89
2022/02/08 16:01:06;;;;;;;8.77;5.43;;;;;;;;;;5111057;28;20438;-88
2022/02/08 16:09:09;;;;;;;8.60;5.72;;;;;;;;;;5078409;28;20397;-90
2022/02/08 16:11:59;;;;;;;10.75;6.40;;;;;;;;;;5100950;28;20982;-89
2022/02/08 16:14:39;;;;;;;9.43;6.40;;;;;;;;;;5102877;28;20413;-89
2022/02/08 16:17:19;;;;;;;11.35;6.20;;;;;;;;;;5101065;28;20449;-89
2022/02/08 16:19:58;;;;;;;8.93;6.90;;;;;;;;;;5100404;28;20466;-88
2022/02/08 16:22:54;;;;;;;8.10;6.18;;;;;;;;;;5098879;28;20503;-91
2022/02/08 16:25:31;;;;;;;9.15;6.13;;;;;;;;;;5099044;28;20603;-90
2022/02/08 16:28:15;;;;;;;7.68;6.18;;;;;;;;;;5102397;28;20480;-90
2022/02/08 16:58:40;;;;;;;13.75;10.25;;;;;;;;;;5095762;28;20537;-88
2022/02/08 17:01:16;;;;;;;18.83;10.63;;;;;;;;;;5101188;27;20471;-90
2022/02/08 17:03:46;;;;;;;14.38;9.23;;;;;;;;;;5100177;28;20487;-91
2022/02/08 17:06:17;;;;;;;18.20;11.00;;;;;;;;;;5081784;28;20869;-88
2022/02/08 17:08:46;;;;;;;17.63;10.95;;;;;;;;;;5099467;28;20540;-88
2022/02/08 17:11:21;;;;;;;16.23;10.90;;;;;;;;;;5101778;28;20874;-89
2022/02/08 17:16:39;;;;;;;14.60;10.65;;;;;;;;;;5088625;28;20528;-89
2022/02/08 17:46:59;;;;;;;16.00;10.40;;;;;;;;;;5098403;28;20398;-91
2022/02/08 17:49:27;;;;;;;15.48;10.30;;;;;;;;;;5109005;28;20451;-91
2022/02/08 17:51:54;;;;;;;22.80;14.03;;;;;;;;;;5110760;28;20563;-92
2022/02/08 17:54:22;;;;;;;15.98;10.32;;;;;;;;;;5106845;28;20800;-91
2022/02/08 17:56:49;;;;;;;22.10;13.90;;;;;;;;;;5106351;28;21213;-91
2022/02/08 17:59:20;;;;;;;22.20;13.63;;;;;;;;;;5124253;28;20402;-92
2022/02/08 18:01:48;;;;;;;17.88;12.13;;;;;;;;;;5127747;28;20412;-92
2022/02/08 18:04:15;;;;;;;20.33;12.30;;;;;;;;;;5131334;28;20394;-91
2022/02/08 18:06:43;;;;;;;22.02;12.85;;;;;;;;;;5094128;28;20797;-91
2022/02/08 18:09:10;;;;;;;22.48;13.27;;;;;;;;;;5107113;28;20443;-91
2022/02/08 18:11:42;;;;;;;23.45;13.20;;;;;;;;;;5084863;28;20408;-91
2022/02/08 18:14:09;;;;;;;24.92;13.38;;;;;;;;;;5101914;28;20761;-90
2022/02/08 18:16:36;;;;;;;20.50;13.23;;;;;;;;;;5096235;28;20423;-89
2022/02/08 18:19:11;;;;;;;21.13;12.73;;;;;;;;;;5078608;28;20894;-88
2022/02/08 18:21:45;;;;;;;20.75;13.40;;;;;;;;;;5080723;28;20880;-88
2022/02/08 18:24:43;;;;;;;20.70;12.95;;;;;;;;;;5081321;28;20416;-88
2022/02/08 18:27:34;;;;;;;21.52;13.13;;;;;;;;;;5083552;28;20777;-88
2022/02/08 19:11:54;;;;;;;40.88;26.25;;;;;;;;;;5098061;28;20416;-91
2022/02/08 19:15:02;;;;;;;39.17;25.15;;;;;;;;;;5101489;28;20410;-91
2022/02/08 19:20:11;;;;;;;45.20;25.58;;;;;;;;;;5059871;28;20754;-95
2022/02/08 19:22:39;;;;;;;41.40;27.65;;;;;;;;;;5082314;28;20400;-96
2022/02/08 19:25:12;;;;;;;44.08;26.40;;;;;;;;;;5094365;28;20410;-95
2022/02/08 19:27:42;;;;;;;47.00;26.50;;;;;;;;;;5101106;28;20403;-95
2022/02/08 19:30:12;;;;;;;37.67;25.52;;;;;;;;;;5099273;28;20422;-94
2022/02/08 19:32:45;;;;;;;40.25;25.52;;;;;;;;;;5101027;28;20408;-94
2022/02/08 19:35:14;;;;;;;39.10;24.25;;;;;;;;;;5097506;28;20416;-95
2022/02/08 19:37:44;;;;;;;39.05;25.60;;;;;;;;;;5100260;28;20417;-95
2022/02/08 19:40:15;;;;;;;42.38;28.05;;;;;;;;;;5097424;28;20414;-93
2022/02/08 19:42:43;;;;;;;45.97;28.23;;;;;;;;;;5100122;28;20403;-94
2022/02/08 19:45:20;;;;;;;46.70;28.23;;;;;;;;;;5101731;28;20412;-94
2022/02/08 19:47:49;;;;;;;53.35;31.33;;;;;;;;;;5105645;28;20744;-95
2022/02/08 19:50:19;;;;;;;53.70;32.20;;;;;;;;;;5100060;28;20406;-94
2022/02/08 19:52:48;;;;;;;54.20;33.03;;;;;;;;;;5098967;28;20406;-94
2022/02/08 19:55:26;;;;;;;55.63;33.17;;;;;;;;;;5103137;28;20917;-83
2022/02/08 19:57:56;;;;;;;55.47;35.28;;;;;;;;;;5096419;28;20403;-86
2022/02/08 20:00:28;;;;;;;58.70;34.38;;;;;;;;;;5098321;28;20406;-87
2022/02/08 20:02:59;;;;;;;59.67;34.83;;;;;;;;;;5099897;28;20783;-86
2022/02/08 20:05:31;;;;;;;52.72;32.92;;;;;;;;;;5100865;28;21011;-87
2022/02/08 20:07:59;;;;;;;56.05;34.22;;;;;;;;;;5092174;28;20455;-86
2022/02/08 20:10:27;;;;;;;56.67;33.95;;;;;;;;;;5096413;28;20490;-87
2022/02/08 20:12:55;;;;;;;55.83;34.88;;;;;;;;;;5098975;28;20413;-88
2022/02/08 20:15:23;;;;;;;53.55;33.10;;;;;;;;;;5098589;28;20452;-86
2022/02/08 20:17:52;;;;;;;55.15;33.40;;;;;;;;;;5101590;28;20414;-88
2022/02/08 20:20:25;;;;;;;53.15;34.33;;;;;;;;;;5098156;28;20940;-85
2022/02/08 20:22:58;;;;;;;58.20;34.53;;;;;;;;;;5081505;28;20427;-88
2022/02/08 20:25:26;;;;;;;55.25;36.20;;;;;;;;;;5101818;28;20483;-88
2022/02/08 20:28:02;;;;;;;53.22;36.53;;;;;;;;;;5098982;28;20460;-88
2022/02/08 20:30:31;;;;;;;54.10;35.38;;;;;;;;;;5100501;28;20536;-85
2022/02/08 20:32:59;;;;;;;55.80;35.00;;;;;;;;;;5102356;28;20552;-89
2022/02/08 20:35:29;;;;;;;55.28;34.78;;;;;;;;;;5099398;28;20400;-88
2022/02/08 20:37:56;;;;;;;58.75;36.83;;;;;;;;;;5098342;28;20417;-88
2022/02/08 20:40:23;;;;;;;54.03;34.22;;;;;;;;;;5096081;28;20901;-88
2022/02/08 20:42:55;;;;;;;49.50;33.00;;;;;;;;;;5092445;28;20411;-85
2022/02/08 20:45:22;;;;;;;51.42;32.92;;;;;;;;;;5076357;28;20408;-87
2022/02/08 20:47:49;;;;;;;53.15;33.58;;;;;;;;;;5081589;28;20907;-88
2022/02/08 20:50:20;;;;;;;50.15;34.90;;;;;;;;;;5079655;28;20403;-88
2022/02/08 20:52:54;;;;;;;51.92;34.65;;;;;;;;;;5076139;27;20408;-88
2022/02/08 20:55:23;;;;;;;49.75;34.03;;;;;;;;;;5100745;27;20413;-89
2022/02/08 20:58:02;;;;;;;50.53;34.08;;;;;;;;;;5086636;28;20452;-86
2022/02/08 21:00:30;;;;;;;57.53;35.90;;;;;;;;;;5097712;28;20420;-90
2022/02/08 21:03:12;;;;;;;52.03;34.88;;;;;;;;;;5099996;28;20412;-91
2022/02/08 21:05:48;;;;;;;54.90;37.03;;;;;;;;;;5098153;28;20412;-88
2022/02/08 21:08:17;;;;;;;54.30;36.38;;;;;;;;;;5100291;28;20410;-89
2022/02/08 21:10:47;;;;;;;56.38;37.17;;;;;;;;;;5111363;28;20414;-89
2022/02/08 21:13:17;;;;;;;53.45;36.33;;;;;;;;;;5095034;28;20415;-88
2022/02/08 21:15:44;;;;;;;50.35;34.85;;;;;;;;;;5096809;28;20429;-86
2022/02/08 21:18:11;;;;;;;52.90;34.15;;;;;;;;;;5096914;28;20400;-89
2022/02/08 21:20:41;;;;;;;54.38;34.38;;;;;;;;;;5096175;28;20464;-89
2022/02/08 21:23:07;;;;;;;48.22;32.95;;;;;;;;;;5076594;28;20421;-89
2022/02/08 21:25:38;;;;;;;52.63;34.05;;;;;;;;;;5097207;28;20424;-89
2022/02/08 21:28:08;;;;;;;48.30;32.72;;;;;;;;;;5096162;28;20406;-88
2022/02/08 21:43:17;;;;;;;47.80;32.72;;;;;;;;;;5097066;28;20414;-88